Ballincollig, Ireland
Current Conditions -  °F | °C
As of 12:00 PM on Wednesday 28 Jan 2015 (Local Time) from EICK Reporting Station
Broken Clouds Broken Clouds  
Wind Chill: 30°   Ceiling: 20000
Heat Index: 39°   Visibility: 6mi
Dew Point: 34°   Wind: 17mph
Humidity: 81%   Direction: 280°W
Pressure: 29.8"   Gusts: NA
Location:  51.89°N, 8.59°W
Report Text: EICK 281200Z 28015KT 9999 FEW007 FEW016CB BKN200 04/01 Q1009 TEMPO 4000
Loading
Personal Weather Stations






























Interactive Weather Map New forecast layout! Learn more

10-Day Weather Forecast

Advertisements
Track Severe Weather on mobile